F/V Jumila — FIDA — position and weather

sailwx.info

Track history (hours):
 
Tides and Currents Weather Stations Pressure Air Temp Water Temp Dewpoint Dewpoint Depression Visibility Wind Speed Wind Dir Waves Ship Positions

F/V Jumila

Last reported at 2018-Feb-16 08:53 UTC. Time now 2018-Feb-19 05:49 UTC.
Position N 47°43' W 003°21'.

Length 14 m.

Type: Fishing. MMSI: 228020600.

Date/timePositionNaut miles runAvg speedWind from/ knotsBaromVisibWave heightAir tempDewpointWater temp
2018-Feb-16 08:53N 47°43' W 003°21'0 0.5
2018-Feb-16 08:31N 47°43' W 003°22'1 1.8
2018-Feb-16 08:00N 47°44' W 003°22'0 0.2
2018-Feb-16 07:30N 47°44' W 003°22'0 0.0
2018-Feb-16 07:00N 47°44' W 003°22'0 0.3
2018-Feb-16 06:30N 47°44' W 003°22'0 0.0
2018-Feb-16 06:00N 47°44' W 003°22'0 0.0
2018-Feb-16 05:30N 47°44' W 003°22'0 0.0
2018-Feb-16 05:00N 47°44' W 003°22'0 0.0
2018-Feb-16 04:30N 47°44' W 003°22'0 0.0
2018-Feb-16 04:00N 47°44' W 003°22'0 0.1
2018-Feb-16 03:30N 47°44' W 003°22'0 0.1
2018-Feb-16 03:00N 47°44' W 003°22'0 0.0
2018-Feb-16 02:30N 47°44' W 003°22'4 7.5
2018-Feb-16 02:01N 47°41' W 003°26'4 8.9
2018-Feb-16 01:30N 47°41' W 003°32'12 1.6
2018-Feb-15 17:35N 47°33' W 003°46'0 3.4
2018-Feb-15 17:30N 47°33' W 003°46'2 3.4
2018-Feb-15 17:00N 47°32' W 003°49'2 3.4
2018-Feb-15 16:30N 47°32' W 003°51'3 5.4
2018-Feb-15 15:57N 47°32' W 003°55'15 3.7
2018-Feb-15 11:49N 47°36' W 004°17'1 3.3
2018-Feb-15 11:29N 47°36' W 004°16'2 1.8
2018-Feb-15 10:10N 47°37' W 004°13'5 2.9
2018-Feb-15 08:22N 47°37' W 004°20'1 3.2
2018-Feb-15 07:55N 47°38' W 004°19'2 3.5
2018-Feb-15 07:27N 47°38' W 004°17'2 3.8
2018-Feb-15 06:57N 47°38' W 004°14'4 2.9
2018-Feb-15 05:45N 47°38' W 004°19'1 3.5
2018-Feb-15 05:27N 47°39' W 004°21'2 3.5
2018-Feb-15 04:57N 47°39' W 004°23'9 3.5
2018-Feb-15 02:14N 47°39' W 004°37'1 3.0
2018-Feb-15 01:52N 47°40' W 004°39'1 3.0
2018-Feb-15 01:27N 47°41' W 004°40'0 0.6
2018-Feb-15 00:59N 47°41' W 004°40'2 3.3
2018-Feb-15 00:18N 47°40' W 004°38'3 3.2
2018-Feb-14 23:23N 47°39' W 004°33'3 3.3
2018-Feb-14 22:34N 47°39' W 004°29'1 3.3
2018-Feb-14 22:20N 47°39' W 004°28'1 3.3
2018-Feb-14 21:55N 47°39' W 004°26'3 3.3
2018-Feb-14 20:58N 47°39' W 004°22'2 3.4
2018-Feb-14 20:29N 47°38' W 004°19'2 3.3
2018-Feb-14 19:58N 47°38' W 004°17'22 3.0
2018-Feb-14 12:43N 47°26' W 003°50'1 3.3
2018-Feb-14 12:30N 47°26' W 003°49'1 0.6
2018-Feb-14 10:55N 47°27' W 003°50'6 1.8
2018-Feb-14 07:50N 47°31' W 003°55'25 0.9
2018-Feb-13 04:45N 47°44' W 003°22'0 0.0
2018-Feb-13 04:31N 47°44' W 003°22'0 0.0
2018-Feb-13 04:00N 47°44' W 003°22'0 0.0
2018-Feb-13 03:31N 47°44' W 003°22'0 0.0
2018-Feb-13 03:00N 47°44' W 003°22'1 1.6
2018-Feb-13 02:31N 47°43' W 003°22'4 8.3
2018-Feb-13 02:01N 47°40' W 003°27'4 8.7
2018-Feb-13 01:31N 47°38' W 003°32'4 8.8
2018-Feb-13 01:00N 47°36' W 003°37'2 3.3
2018-Feb-13 00:31N 47°34' W 003°39'1 2.0
2018-Feb-13 00:01N 47°34' W 003°38'1 2.3
2018-Feb-12 23:31N 47°35' W 003°39'2 3.5
2018-Feb-12 23:00N 47°35' W 003°42'2 3.5
2018-Feb-12 22:31N 47°34' W 003°43'2 3.4
2018-Feb-12 22:01N 47°33' W 003°46'2 3.6
2018-Feb-12 21:31N 47°32' W 003°48'2 3.6
2018-Feb-12 21:00N 47°31' W 003°50'2 3.6
2018-Feb-12 20:30N 47°29' W 003°51'19 2.6
2018-Feb-12 13:18N 47°36' W 004°17'3 2.9
2018-Feb-12 12:18N 47°37' W 004°13'1 3.4
2018-Feb-12 11:58N 47°36' W 004°12'13 3.2
2018-Feb-12 07:54N 47°32' W 003°54'1 3.5
2018-Feb-12 07:29N 47°32' W 003°52'3 5.0
2018-Feb-12 06:50N 47°32' W 003°47'3 8.9
2018-Feb-12 06:29N 47°34' W 003°43'4 8.9
2018-Feb-12 06:00N 47°37' W 003°38'4 8.9
2018-Feb-12 05:30N 47°39' W 003°33'4 9.0
2018-Feb-12 05:00N 47°40' W 003°27'4 8.4
2018-Feb-12 04:31N 47°43' W 003°21'1 2.0
2018-Feb-12 04:01N 47°44' W 003°22'0 0.3
2018-Feb-12 03:30N 47°44' W 003°22'0 0.0
2018-Feb-12 03:00N 47°44' W 003°22'2 3.5
2018-Feb-12 02:31N 47°42' W 003°22'4 8.5
2018-Feb-12 02:01N 47°38' W 003°22'4 8.3
2018-Feb-12 01:30N 47°34' W 003°21'16 2.5
2018-Feb-11 19:07N 47°33' W 003°44'0 2.6
2018-Feb-11 19:00N 47°33' W 003°45'2 3.4
2018-Feb-11 18:30N 47°33' W 003°47'2 3.3
2018-Feb-11 18:00N 47°32' W 003°49'2 3.5
2018-Feb-11 17:30N 47°32' W 003°51'20 2.4
2018-Feb-11 09:20N 47°38' W 004°19'1 3.0
2018-Feb-11 08:53N 47°37' W 004°21'2 2.9
2018-Feb-11 08:19N 47°36' W 004°19'2 3.0
2018-Feb-11 07:45N 47°36' W 004°16'2 2.9
2018-Feb-11 07:01N 47°36' W 004°13'0 0.6
2018-Feb-11 06:59N 47°36' W 004°13'5 3.2
2018-Feb-11 05:19N 47°38' W 004°20'13 3.5
2018-Feb-11 01:33N 47°41' W 004°40'0 2.5
2018-Feb-11 01:26N 47°41' W 004°40'1 1.2
2018-Feb-11 01:00N 47°40' W 004°40'2 2.9
2018-Feb-11 00:22N 47°40' W 004°37'3 1.2
2018-Feb-10 22:13N 47°41' W 004°40'1 3.1
2018-Feb-10 21:54N 47°40' W 004°40'6 2.9
2018-Feb-10 19:45N 47°40' W 004°30'0 1.2
2018-Feb-10 19:24N 47°39' W 004°30'2 3.1
2018-Feb-10 18:40N 47°39' W 004°26'1 3.1
2018-Feb-10 18:19N 47°39' W 004°25'2 3.2
2018-Feb-10 17:41N 47°39' W 004°22'1 3.2
2018-Feb-10 17:25N 47°38' W 004°21'2 3.2
2018-Feb-10 16:47N 47°37' W 004°18'2 3.2
2018-Feb-10 16:11N 47°36' W 004°16'3 1.2
2018-Feb-10 13:35N 47°37' W 004°20'0 3.4
2018-Feb-10 13:30N 47°37' W 004°20'1 2.7
2018-Feb-10 13:00N 47°36' W 004°19'4 2.9
2018-Feb-10 11:40N 47°35' W 004°13'2 3.0
2018-Feb-10 11:08N 47°35' W 004°11'5 0.9
2018-Feb-10 05:18N 47°37' W 004°18'39 1.0
2018-Feb-08 14:30N 47°44' W 003°22'6 5.6
2018-Feb-08 13:30N 47°38' W 003°23'4 8.7
2018-Feb-08 13:00N 47°34' W 003°25'8 8.1
2018-Feb-08 12:00N 47°27' W 003°31'1 2.6
2018-Feb-08 11:30N 47°26' W 003°31'2 3.2
2018-Feb-08 11:00N 47°25' W 003°28'1 2.8
2018-Feb-08 10:30N 47°27' W 003°28'2 3.1
2018-Feb-08 10:00N 47°25' W 003°29'3 3.2
2018-Feb-08 09:00N 47°28' W 003°32'3 3.4
2018-Feb-08 08:00N 47°31' W 003°32'3 3.1
2018-Feb-08 07:00N 47°34' W 003°32'0 0.0
2018-Feb-08 06:30N 47°34' W 003°32'2 3.4
2018-Feb-08 06:00N 47°33' W 003°31'2 3.6
2018-Feb-08 05:30N 47°31' W 003°31'2 3.5
2018-Feb-08 05:00N 47°29' W 003°31'2 3.4
2018-Feb-08 04:30N 47°28' W 003°31'1 2.4
2018-Feb-08 04:00N 47°28' W 003°29'2 3.5
2018-Feb-08 03:30N 47°30' W 003°30'1 2.2
2018-Feb-08 03:00N 47°30' W 003°31'2 3.5
2018-Feb-08 02:30N 47°28' W 003°31'3 3.4
2018-Feb-08 01:30N 47°25' W 003°29'0 0.8
2018-Feb-08 01:00N 47°26' W 003°29'2 3.7
2018-Feb-08 00:30N 47°27' W 003°29'2 3.7
2018-Feb-08 00:00N 47°29' W 003°30'2 3.6
2018-Feb-07 23:30N 47°31' W 003°31'1 2.4
2018-Feb-07 23:00N 47°30' W 003°32'2 3.3
2018-Feb-07 22:30N 47°29' W 003°31'2 3.2
2018-Feb-07 22:00N 47°27' W 003°31'2 3.2
2018-Feb-07 21:31N 47°26' W 003°30'  
Track history (hours):
 
Tides and Currents Weather Stations Pressure Air Temp Water Temp Dewpoint Dewpoint Depression Visibility Wind Speed Wind Dir Waves Ship Positions

F/V Jumila

Last reported at 2018-Feb-16 08:53 UTC. Time now 2018-Feb-19 05:49 UTC.
Position N 47°43' W 003°21'.

Length 14 m.

Type: Fishing. MMSI: 228020600.

Date/timePositionNaut miles runAvg speedWind from/ knotsBaromVisibWave heightAir tempDewpointWater temp
2018-Feb-16 08:53N 47°43' W 003°21'0 0.5
2018-Feb-16 08:31N 47°43' W 003°22'1 1.8
2018-Feb-16 08:00N 47°44' W 003°22'0 0.2
2018-Feb-16 07:30N 47°44' W 003°22'0 0.0
2018-Feb-16 07:00N 47°44' W 003°22'0 0.3
2018-Feb-16 06:30N 47°44' W 003°22'0 0.0
2018-Feb-16 06:00N 47°44' W 003°22'0 0.0
2018-Feb-16 05:30N 47°44' W 003°22'0 0.0
2018-Feb-16 05:00N 47°44' W 003°22'0 0.0
2018-Feb-16 04:30N 47°44' W 003°22'0 0.0
2018-Feb-16 04:00N 47°44' W 003°22'0 0.1
2018-Feb-16 03:30N 47°44' W 003°22'0 0.1
2018-Feb-16 03:00N 47°44' W 003°22'0 0.0
2018-Feb-16 02:30N 47°44' W 003°22'4 7.5
2018-Feb-16 02:01N 47°41' W 003°26'4 8.9
2018-Feb-16 01:30N 47°41' W 003°32'12 1.6
2018-Feb-15 17:35N 47°33' W 003°46'0 3.4
2018-Feb-15 17:30N 47°33' W 003°46'2 3.4
2018-Feb-15 17:00N 47°32' W 003°49'2 3.4
2018-Feb-15 16:30N 47°32' W 003°51'3 5.4
2018-Feb-15 15:57N 47°32' W 003°55'15 3.7
2018-Feb-15 11:49N 47°36' W 004°17'1 3.3
2018-Feb-15 11:29N 47°36' W 004°16'2 1.8
2018-Feb-15 10:10N 47°37' W 004°13'5 2.9
2018-Feb-15 08:22N 47°37' W 004°20'1 3.2
2018-Feb-15 07:55N 47°38' W 004°19'2 3.5
2018-Feb-15 07:27N 47°38' W 004°17'2 3.8
2018-Feb-15 06:57N 47°38' W 004°14'4 2.9
2018-Feb-15 05:45N 47°38' W 004°19'1 3.5
2018-Feb-15 05:27N 47°39' W 004°21'2 3.5
2018-Feb-15 04:57N 47°39' W 004°23'9 3.5
2018-Feb-15 02:14N 47°39' W 004°37'1 3.0
2018-Feb-15 01:52N 47°40' W 004°39'1 3.0
2018-Feb-15 01:27N 47°41' W 004°40'0 0.6
2018-Feb-15 00:59N 47°41' W 004°40'2 3.3
2018-Feb-15 00:18N 47°40' W 004°38'3 3.2
2018-Feb-14 23:23N 47°39' W 004°33'3 3.3
2018-Feb-14 22:34N 47°39' W 004°29'1 3.3
2018-Feb-14 22:20N 47°39' W 004°28'1 3.3
2018-Feb-14 21:55N 47°39' W 004°26'3 3.3
2018-Feb-14 20:58N 47°39' W 004°22'2 3.4
2018-Feb-14 20:29N 47°38' W 004°19'2 3.3
2018-Feb-14 19:58N 47°38' W 004°17'22 3.0
2018-Feb-14 12:43N 47°26' W 003°50'1 3.3
2018-Feb-14 12:30N 47°26' W 003°49'1 0.6
2018-Feb-14 10:55N 47°27' W 003°50'6 1.8
2018-Feb-14 07:50N 47°31' W 003°55'25 0.9
2018-Feb-13 04:45N 47°44' W 003°22'0 0.0
2018-Feb-13 04:31N 47°44' W 003°22'0 0.0
2018-Feb-13 04:00N 47°44' W 003°22'0 0.0
2018-Feb-13 03:31N 47°44' W 003°22'0 0.0
2018-Feb-13 03:00N 47°44' W 003°22'1 1.6
2018-Feb-13 02:31N 47°43' W 003°22'4 8.3
2018-Feb-13 02:01N 47°40' W 003°27'4 8.7
2018-Feb-13 01:31N 47°38' W 003°32'4 8.8
2018-Feb-13 01:00N 47°36' W 003°37'2 3.3
2018-Feb-13 00:31N 47°34' W 003°39'1 2.0
2018-Feb-13 00:01N 47°34' W 003°38'1 2.3
2018-Feb-12 23:31N 47°35' W 003°39'2 3.5
2018-Feb-12 23:00N 47°35' W 003°42'2 3.5
2018-Feb-12 22:31N 47°34' W 003°43'2 3.4
2018-Feb-12 22:01N 47°33' W 003°46'2 3.6
2018-Feb-12 21:31N 47°32' W 003°48'2 3.6
2018-Feb-12 21:00N 47°31' W 003°50'2 3.6
2018-Feb-12 20:30N 47°29' W 003°51'19 2.6
2018-Feb-12 13:18N 47°36' W 004°17'3 2.9
2018-Feb-12 12:18N 47°37' W 004°13'1 3.4
2018-Feb-12 11:58N 47°36' W 004°12'13 3.2
2018-Feb-12 07:54N 47°32' W 003°54'1 3.5
2018-Feb-12 07:29N 47°32' W 003°52'3 5.0
2018-Feb-12 06:50N 47°32' W 003°47'3 8.9
2018-Feb-12 06:29N 47°34' W 003°43'4 8.9
2018-Feb-12 06:00N 47°37' W 003°38'4 8.9
2018-Feb-12 05:30N 47°39' W 003°33'4 9.0
2018-Feb-12 05:00N 47°40' W 003°27'4 8.4
2018-Feb-12 04:31N 47°43' W 003°21'1 2.0
2018-Feb-12 04:01N 47°44' W 003°22'0 0.3
2018-Feb-12 03:30N 47°44' W 003°22'0 0.0
2018-Feb-12 03:00N 47°44' W 003°22'2 3.5
2018-Feb-12 02:31N 47°42' W 003°22'4 8.5
2018-Feb-12 02:01N 47°38' W 003°22'4 8.3
2018-Feb-12 01:30N 47°34' W 003°21'16 2.5
2018-Feb-11 19:07N 47°33' W 003°44'0 2.6
2018-Feb-11 19:00N 47°33' W 003°45'2 3.4
2018-Feb-11 18:30N 47°33' W 003°47'2 3.3
2018-Feb-11 18:00N 47°32' W 003°49'2 3.5
2018-Feb-11 17:30N 47°32' W 003°51'20 2.4
2018-Feb-11 09:20N 47°38' W 004°19'1 3.0
2018-Feb-11 08:53N 47°37' W 004°21'2 2.9
2018-Feb-11 08:19N 47°36' W 004°19'2 3.0
2018-Feb-11 07:45N 47°36' W 004°16'2 2.9
2018-Feb-11 07:01N 47°36' W 004°13'0 0.6
2018-Feb-11 06:59N 47°36' W 004°13'5 3.2
2018-Feb-11 05:19N 47°38' W 004°20'13 3.5
2018-Feb-11 01:33N 47°41' W 004°40'0 2.5
2018-Feb-11 01:26N 47°41' W 004°40'1 1.2
2018-Feb-11 01:00N 47°40' W 004°40'2 2.9
2018-Feb-11 00:22N 47°40' W 004°37'3 1.2
2018-Feb-10 22:13N 47°41' W 004°40'1 3.1
2018-Feb-10 21:54N 47°40' W 004°40'6 2.9
2018-Feb-10 19:45N 47°40' W 004°30'0 1.2
2018-Feb-10 19:24N 47°39' W 004°30'2 3.1
2018-Feb-10 18:40N 47°39' W 004°26'1 3.1
2018-Feb-10 18:19N 47°39' W 004°25'2 3.2
2018-Feb-10 17:41N 47°39' W 004°22'1 3.2
2018-Feb-10 17:25N 47°38' W 004°21'2 3.2
2018-Feb-10 16:47N 47°37' W 004°18'2 3.2
2018-Feb-10 16:11N 47°36' W 004°16'3 1.2
2018-Feb-10 13:35N 47°37' W 004°20'0 3.4
2018-Feb-10 13:30N 47°37' W 004°20'1 2.7
2018-Feb-10 13:00N 47°36' W 004°19'4 2.9
2018-Feb-10 11:40N 47°35' W 004°13'2 3.0
2018-Feb-10 11:08N 47°35' W 004°11'5 0.9
2018-Feb-10 05:18N 47°37' W 004°18'39 1.0
2018-Feb-08 14:30N 47°44' W 003°22'6 5.6
2018-Feb-08 13:30N 47°38' W 003°23'4 8.7
2018-Feb-08 13:00N 47°34' W 003°25'8 8.1
2018-Feb-08 12:00N 47°27' W 003°31'1 2.6
2018-Feb-08 11:30N 47°26' W 003°31'2 3.2
2018-Feb-08 11:00N 47°25' W 003°28'1 2.8
2018-Feb-08 10:30N 47°27' W 003°28'2 3.1
2018-Feb-08 10:00N 47°25' W 003°29'3 3.2
2018-Feb-08 09:00N 47°28' W 003°32'3 3.4
2018-Feb-08 08:00N 47°31' W 003°32'3 3.1
2018-Feb-08 07:00N 47°34' W 003°32'0 0.0
2018-Feb-08 06:30N 47°34' W 003°32'2 3.4
2018-Feb-08 06:00N 47°33' W 003°31'2 3.6
2018-Feb-08 05:30N 47°31' W 003°31'2 3.5
2018-Feb-08 05:00N 47°29' W 003°31'2 3.4
2018-Feb-08 04:30N 47°28' W 003°31'1 2.4
2018-Feb-08 04:00N 47°28' W 003°29'2 3.5
2018-Feb-08 03:30N 47°30' W 003°30'1 2.2
2018-Feb-08 03:00N 47°30' W 003°31'2 3.5
2018-Feb-08 02:30N 47°28' W 003°31'3 3.4
2018-Feb-08 01:30N 47°25' W 003°29'0 0.8
2018-Feb-08 01:00N 47°26' W 003°29'2 3.7
2018-Feb-08 00:30N 47°27' W 003°29'2 3.7
2018-Feb-08 00:00N 47°29' W 003°30'2 3.6
2018-Feb-07 23:30N 47°31' W 003°31'1 2.4
2018-Feb-07 23:00N 47°30' W 003°32'2 3.3
2018-Feb-07 22:30N 47°29' W 003°31'2 3.2
2018-Feb-07 22:00N 47°27' W 003°31'2 3.2
2018-Feb-07 21:31N 47°26' W 003°30'  

Dump ship's entire track history